sensor_id;sensor_type;location;lat;lon;timestamp;P1;durP1;ratioP1;P2;durP2;ratioP2
21987;SDS011;11158;53.404;-1.510;2023-03-01T00:01:11;10.52;;;5.40;;
21987;SDS011;11158;53.404;-1.510;2023-03-01T00:03:41;9.30;;;5.95;;
21987;SDS011;11158;53.404;-1.510;2023-03-01T00:06:07;8.98;;;4.65;;
21987;SDS011;11158;53.404;-1.510;2023-03-01T00:08:33;8.45;;;5.25;;
21987;SDS011;11158;53.404;-1.510;2023-03-01T00:11:16;7.30;;;4.70;;
21987;SDS011;11158;53.404;-1.510;2023-03-01T00:13:45;9.02;;;4.30;;
21987;SDS011;11158;53.404;-1.510;2023-03-01T00:16:14;7.57;;;4.43;;
21987;SDS011;11158;53.404;-1.510;2023-03-01T00:18:41;5.25;;;3.63;;
21987;SDS011;11158;53.404;-1.510;2023-03-01T00:21:07;7.72;;;3.80;;
21987;SDS011;11158;53.404;-1.510;2023-03-01T00:23:33;5.05;;;3.30;;
21987;SDS011;11158;53.404;-1.510;2023-03-01T00:25:59;7.57;;;3.50;;
21987;SDS011;11158;53.404;-1.510;2023-03-01T00:28:25;5.20;;;3.47;;
21987;SDS011;11158;53.404;-1.510;2023-03-01T00:30:50;4.07;;;3.42;;
21987;SDS011;11158;53.404;-1.510;2023-03-01T00:33:16;5.35;;;3.40;;
21987;SDS011;11158;53.404;-1.510;2023-03-01T00:35:42;5.70;;;3.55;;
21987;SDS011;11158;53.404;-1.510;2023-03-01T00:38:07;8.73;;;4.13;;
21987;SDS011;11158;53.404;-1.510;2023-03-01T00:40:34;8.18;;;5.10;;
21987;SDS011;11158;53.404;-1.510;2023-03-01T00:43:00;10.13;;;5.28;;
21987;SDS011;11158;53.404;-1.510;2023-03-01T00:45:26;9.48;;;5.55;;
21987;SDS011;11158;53.404;-1.510;2023-03-01T00:47:52;8.27;;;5.05;;
21987;SDS011;11158;53.404;-1.510;2023-03-01T00:50:18;9.02;;;5.07;;
21987;SDS011;11158;53.404;-1.510;2023-03-01T00:52:44;9.77;;;5.55;;
21987;SDS011;11158;53.404;-1.510;2023-03-01T00:55:10;11.30;;;5.78;;
21987;SDS011;11158;53.404;-1.510;2023-03-01T00:57:36;8.73;;;5.47;;
21987;SDS011;11158;53.404;-1.510;2023-03-01T01:00:03;12.85;;;5.97;;
21987;SDS011;11158;53.404;-1.510;2023-03-01T01:02:32;9.75;;;5.43;;
21987;SDS011;11158;53.404;-1.510;2023-03-01T01:04:59;13.88;;;5.93;;
21987;SDS011;11158;53.404;-1.510;2023-03-01T01:07:26;11.00;;;6.22;;
21987;SDS011;11158;53.404;-1.510;2023-03-01T01:09:51;12.90;;;5.75;;
21987;SDS011;11158;53.404;-1.510;2023-03-01T01:12:17;9.63;;;5.30;;
21987;SDS011;11158;53.404;-1.510;2023-03-01T01:14:43;7.38;;;4.30;;
21987;SDS011;11158;53.404;-1.510;2023-03-01T01:17:08;9.55;;;5.10;;
21987;SDS011;11158;53.404;-1.510;2023-03-01T01:19:53;9.68;;;5.10;;
21987;SDS011;11158;53.404;-1.510;2023-03-01T01:22:19;11.35;;;4.60;;
21987;SDS011;11158;53.404;-1.510;2023-03-01T01:24:44;10.60;;;4.55;;
21987;SDS011;11158;53.404;-1.510;2023-03-01T01:27:10;5.57;;;4.10;;
21987;SDS011;11158;53.404;-1.510;2023-03-01T01:29:35;9.93;;;4.25;;
21987;SDS011;11158;53.404;-1.510;2023-03-01T01:32:01;6.20;;;3.60;;
21987;SDS011;11158;53.404;-1.510;2023-03-01T01:34:27;8.50;;;4.40;;
21987;SDS011;11158;53.404;-1.510;2023-03-01T01:36:53;6.32;;;4.32;;
21987;SDS011;11158;53.404;-1.510;2023-03-01T01:39:19;6.68;;;4.15;;
21987;SDS011;11158;53.404;-1.510;2023-03-01T01:41:45;8.75;;;4.00;;
21987;SDS011;11158;53.404;-1.510;2023-03-01T01:44:21;7.90;;;3.90;;
21987;SDS011;11158;53.404;-1.510;2023-03-01T01:46:51;8.65;;;4.43;;
21987;SDS011;11158;53.404;-1.510;2023-03-01T01:57:15;8.05;;;4.28;;
21987;SDS011;11158;53.404;-1.510;2023-03-01T01:59:50;6.50;;;4.10;;
21987;SDS011;11158;53.404;-1.510;2023-03-01T02:02:20;5.97;;;3.88;;
21987;SDS011;11158;53.404;-1.510;2023-03-01T02:04:46;8.63;;;4.10;;
21987;SDS011;11158;53.404;-1.510;2023-03-01T02:07:20;8.75;;;4.75;;
21987;SDS011;11158;53.404;-1.510;2023-03-01T02:09:48;6.78;;;3.92;;
21987;SDS011;11158;53.404;-1.510;2023-03-01T02:12:16;8.00;;;5.00;;
21987;SDS011;11158;53.404;-1.510;2023-03-01T02:14:44;9.85;;;5.75;;
21987;SDS011;11158;53.404;-1.510;2023-03-01T02:17:11;8.73;;;5.72;;
21987;SDS011;11158;53.404;-1.510;2023-03-01T02:22:44;8.15;;;5.53;;
21987;SDS011;11158;53.404;-1.510;2023-03-01T02:30:35;8.35;;;4.88;;
21987;SDS011;11158;53.404;-1.510;2023-03-01T02:33:01;5.68;;;5.00;;
21987;SDS011;11158;53.404;-1.510;2023-03-01T02:35:30;7.30;;;4.80;;
21987;SDS011;11158;53.404;-1.510;2023-03-01T02:37:59;5.80;;;4.35;;
21987;SDS011;11158;53.404;-1.510;2023-03-01T02:40:27;5.18;;;3.95;;
21987;SDS011;11158;53.404;-1.510;2023-03-01T02:42:56;5.90;;;3.65;;
21987;SDS011;11158;53.404;-1.510;2023-03-01T02:45:24;9.88;;;3.95;;
21987;SDS011;11158;53.404;-1.510;2023-03-01T02:47:53;7.65;;;4.13;;
21987;SDS011;11158;53.404;-1.510;2023-03-01T02:52:57;5.85;;;3.55;;
21987;SDS011;11158;53.404;-1.510;2023-03-01T02:55:31;7.50;;;4.00;;
21987;SDS011;11158;53.404;-1.510;2023-03-01T02:57:57;8.13;;;4.10;;
21987;SDS011;11158;53.404;-1.510;2023-03-01T03:00:28;7.15;;;3.72;;
21987;SDS011;11158;53.404;-1.510;2023-03-01T03:03:00;8.85;;;3.92;;
21987;SDS011;11158;53.404;-1.510;2023-03-01T03:05:27;4.80;;;3.55;;
21987;SDS011;11158;53.404;-1.510;2023-03-01T03:07:55;4.57;;;3.45;;
21987;SDS011;11158;53.404;-1.510;2023-03-01T03:10:23;4.07;;;3.45;;
21987;SDS011;11158;53.404;-1.510;2023-03-01T03:12:52;5.53;;;3.72;;
21987;SDS011;11158;53.404;-1.510;2023-03-01T03:15:22;8.13;;;3.88;;
21987;SDS011;11158;53.404;-1.510;2023-03-01T03:17:49;5.72;;;3.67;;
21987;SDS011;11158;53.404;-1.510;2023-03-01T03:20:16;4.07;;;3.40;;
21987;SDS011;11158;53.404;-1.510;2023-03-01T03:22:45;6.70;;;3.72;;
21987;SDS011;11158;53.404;-1.510;2023-03-01T03:25:12;5.38;;;3.95;;
21987;SDS011;11158;53.404;-1.510;2023-03-01T03:27:38;5.25;;;4.63;;
21987;SDS011;11158;53.404;-1.510;2023-03-01T03:30:05;6.32;;;4.65;;
21987;SDS011;11158;53.404;-1.510;2023-03-01T03:32:38;8.00;;;5.35;;
21987;SDS011;11158;53.404;-1.510;2023-03-01T03:35:05;7.10;;;5.38;;
21987;SDS011;11158;53.404;-1.510;2023-03-01T03:37:40;7.50;;;5.35;;
21987;SDS011;11158;53.404;-1.510;2023-03-01T03:40:25;7.70;;;5.63;;
21987;SDS011;11158;53.404;-1.510;2023-03-01T03:42:52;9.40;;;4.90;;
21987;SDS011;11158;53.404;-1.510;2023-03-01T03:45:18;6.28;;;5.20;;
21987;SDS011;11158;53.404;-1.510;2023-03-01T03:47:44;9.60;;;5.90;;
21987;SDS011;11158;53.404;-1.510;2023-03-01T03:50:13;9.90;;;6.20;;
21987;SDS011;11158;53.404;-1.510;2023-03-01T03:52:40;9.90;;;5.22;;
21987;SDS011;11158;53.404;-1.510;2023-03-01T03:55:07;6.03;;;4.28;;
21987;SDS011;11158;53.404;-1.510;2023-03-01T03:57:37;4.60;;;3.78;;
21987;SDS011;11158;53.404;-1.510;2023-03-01T04:00:04;3.10;;;2.80;;
21987;SDS011;11158;53.404;-1.510;2023-03-01T04:02:44;4.07;;;2.85;;
21987;SDS011;11158;53.404;-1.510;2023-03-01T04:05:11;5.70;;;3.70;;
21987;SDS011;11158;53.404;-1.510;2023-03-01T04:07:39;7.40;;;5.53;;
21987;SDS011;11158;53.404;-1.510;2023-03-01T04:10:05;10.77;;;7.13;;
21987;SDS011;11158;53.404;-1.510;2023-03-01T04:12:33;9.27;;;6.28;;
21987;SDS011;11158;53.404;-1.510;2023-03-01T04:15:00;10.13;;;8.52;;
21987;SDS011;11158;53.404;-1.510;2023-03-01T04:17:26;8.45;;;7.22;;
21987;SDS011;11158;53.404;-1.510;2023-03-01T04:19:52;10.15;;;8.20;;
21987;SDS011;11158;53.404;-1.510;2023-03-01T04:22:18;10.93;;;7.85;;
21987;SDS011;11158;53.404;-1.510;2023-03-01T04:24:44;9.82;;;7.13;;
21987;SDS011;11158;53.404;-1.510;2023-03-01T04:27:10;10.50;;;7.25;;
21987;SDS011;11158;53.404;-1.510;2023-03-01T04:29:36;7.82;;;6.50;;
21987;SDS011;11158;53.404;-1.510;2023-03-01T04:32:01;9.65;;;6.97;;
21987;SDS011;11158;53.404;-1.510;2023-03-01T04:34:28;7.15;;;6.20;;
21987;SDS011;11158;53.404;-1.510;2023-03-01T04:36:54;11.27;;;7.00;;
21987;SDS011;11158;53.404;-1.510;2023-03-01T04:39:19;8.90;;;6.72;;
21987;SDS011;11158;53.404;-1.510;2023-03-01T04:41:45;10.82;;;6.65;;
21987;SDS011;11158;53.404;-1.510;2023-03-01T04:44:11;10.13;;;7.25;;
21987;SDS011;11158;53.404;-1.510;2023-03-01T04:46:36;9.98;;;7.47;;
21987;SDS011;11158;53.404;-1.510;2023-03-01T04:49:02;8.50;;;6.72;;
21987;SDS011;11158;53.404;-1.510;2023-03-01T04:51:28;7.20;;;6.47;;
21987;SDS011;11158;53.404;-1.510;2023-03-01T04:53:54;9.65;;;5.72;;
21987;SDS011;11158;53.404;-1.510;2023-03-01T04:56:20;7.38;;;4.97;;
21987;SDS011;11158;53.404;-1.510;2023-03-01T04:58:48;6.93;;;5.13;;
21987;SDS011;11158;53.404;-1.510;2023-03-01T05:01:18;6.45;;;5.18;;
21987;SDS011;11158;53.404;-1.510;2023-03-01T05:03:46;6.10;;;4.25;;
21987;SDS011;11158;53.404;-1.510;2023-03-01T05:06:13;5.00;;;3.97;;
21987;SDS011;11158;53.404;-1.510;2023-03-01T05:08:40;7.60;;;4.20;;
21987;SDS011;11158;53.404;-1.510;2023-03-01T05:11:06;3.83;;;3.08;;
21987;SDS011;11158;53.404;-1.510;2023-03-01T05:13:34;6.78;;;3.65;;
21987;SDS011;11158;53.404;-1.510;2023-03-01T05:16:02;6.07;;;3.65;;
21987;SDS011;11158;53.404;-1.510;2023-03-01T05:18:30;5.13;;;4.07;;
21987;SDS011;11158;53.404;-1.510;2023-03-01T05:21:02;6.03;;;3.63;;
21987;SDS011;11158;53.404;-1.510;2023-03-01T05:23:31;5.15;;;3.90;;
21987;SDS011;11158;53.404;-1.510;2023-03-01T05:25:58;6.20;;;4.97;;
21987;SDS011;11158;53.404;-1.510;2023-03-01T05:28:25;7.88;;;5.43;;
21987;SDS011;11158;53.404;-1.510;2023-03-01T05:30:53;13.85;;;6.28;;
21987;SDS011;11158;53.404;-1.510;2023-03-01T05:33:18;7.40;;;4.80;;
21987;SDS011;11158;53.404;-1.510;2023-03-01T05:35:47;5.70;;;4.93;;
21987;SDS011;11158;53.404;-1.510;2023-03-01T05:38:14;6.78;;;4.60;;
21987;SDS011;11158;53.404;-1.510;2023-03-01T05:40:41;4.90;;;4.10;;
21987;SDS011;11158;53.404;-1.510;2023-03-01T05:43:08;5.72;;;4.15;;
21987;SDS011;11158;53.404;-1.510;2023-03-01T05:45:35;6.57;;;4.20;;
21987;SDS011;11158;53.404;-1.510;2023-03-01T05:48:03;6.10;;;4.60;;
21987;SDS011;11158;53.404;-1.510;2023-03-01T05:50:32;7.10;;;4.80;;
21987;SDS011;11158;53.404;-1.510;2023-03-01T05:55:27;6.22;;;4.65;;
21987;SDS011;11158;53.404;-1.510;2023-03-01T05:57:54;5.68;;;4.80;;
21987;SDS011;11158;53.404;-1.510;2023-03-01T06:00:21;6.90;;;5.18;;
21987;SDS011;11158;53.404;-1.510;2023-03-01T06:02:50;5.97;;;4.38;;
21987;SDS011;11158;53.404;-1.510;2023-03-01T06:05:17;4.97;;;4.10;;
21987;SDS011;11158;53.404;-1.510;2023-03-01T06:07:43;7.45;;;3.50;;
21987;SDS011;11158;53.404;-1.510;2023-03-01T06:10:09;5.45;;;3.78;;
21987;SDS011;11158;53.404;-1.510;2023-03-01T06:12:37;5.57;;;3.15;;
21987;SDS011;11158;53.404;-1.510;2023-03-01T06:15:04;5.53;;;3.08;;
21987;SDS011;11158;53.404;-1.510;2023-03-01T06:17:32;6.07;;;3.55;;
21987;SDS011;11158;53.404;-1.510;2023-03-01T06:20:10;6.25;;;3.92;;
21987;SDS011;11158;53.404;-1.510;2023-03-01T06:22:37;8.38;;;5.32;;
21987;SDS011;11158;53.404;-1.510;2023-03-01T06:25:04;9.15;;;5.22;;
21987;SDS011;11158;53.404;-1.510;2023-03-01T06:27:30;8.60;;;5.90;;
21987;SDS011;11158;53.404;-1.510;2023-03-01T06:29:56;10.20;;;6.03;;
21987;SDS011;11158;53.404;-1.510;2023-03-01T06:32:22;7.90;;;5.90;;
21987;SDS011;11158;53.404;-1.510;2023-03-01T06:34:47;11.15;;;5.82;;
21987;SDS011;11158;53.404;-1.510;2023-03-01T06:37:13;10.38;;;6.13;;
21987;SDS011;11158;53.404;-1.510;2023-03-01T06:39:39;9.85;;;5.18;;
21987;SDS011;11158;53.404;-1.510;2023-03-01T06:42:04;11.15;;;5.35;;
21987;SDS011;11158;53.404;-1.510;2023-03-01T06:44:30;7.47;;;3.83;;
21987;SDS011;11158;53.404;-1.510;2023-03-01T06:46:56;7.78;;;3.83;;
21987;SDS011;11158;53.404;-1.510;2023-03-01T06:49:21;8.52;;;3.67;;
21987;SDS011;11158;53.404;-1.510;2023-03-01T06:51:47;6.88;;;3.65;;
21987;SDS011;11158;53.404;-1.510;2023-03-01T06:54:13;4.88;;;3.92;;
21987;SDS011;11158;53.404;-1.510;2023-03-01T06:56:39;9.95;;;4.10;;
21987;SDS011;11158;53.404;-1.510;2023-03-01T06:59:04;8.30;;;5.00;;
21987;SDS011;11158;53.404;-1.510;2023-03-01T07:01:30;13.57;;;5.53;;
21987;SDS011;11158;53.404;-1.510;2023-03-01T07:03:56;9.07;;;5.70;;
21987;SDS011;11158;53.404;-1.510;2023-03-01T07:06:22;16.50;;;5.63;;
21987;SDS011;11158;53.404;-1.510;2023-03-01T07:08:48;11.98;;;5.85;;
21987;SDS011;11158;53.404;-1.510;2023-03-01T07:11:16;6.88;;;5.32;;
21987;SDS011;11158;53.404;-1.510;2023-03-01T07:13:41;9.10;;;6.55;;
21987;SDS011;11158;53.404;-1.510;2023-03-01T07:16:07;26.13;;;7.85;;
21987;SDS011;11158;53.404;-1.510;2023-03-01T07:18:33;10.10;;;5.63;;
21987;SDS011;11158;53.404;-1.510;2023-03-01T07:21:03;10.27;;;5.22;;
21987;SDS011;11158;53.404;-1.510;2023-03-01T07:23:40;9.73;;;4.82;;
21987;SDS011;11158;53.404;-1.510;2023-03-01T07:26:06;7.47;;;5.20;;
21987;SDS011;11158;53.404;-1.510;2023-03-01T07:28:32;10.38;;;5.13;;
21987;SDS011;11158;53.404;-1.510;2023-03-01T07:31:02;6.53;;;5.82;;
21987;SDS011;11158;53.404;-1.510;2023-03-01T07:33:28;8.80;;;4.85;;
21987;SDS011;11158;53.404;-1.510;2023-03-01T07:35:57;9.15;;;5.50;;
21987;SDS011;11158;53.404;-1.510;2023-03-01T07:38:23;9.45;;;4.68;;
21987;SDS011;11158;53.404;-1.510;2023-03-01T07:40:49;5.95;;;3.47;;
21987;SDS011;11158;53.404;-1.510;2023-03-01T07:43:14;4.55;;;3.30;;
21987;SDS011;11158;53.404;-1.510;2023-03-01T07:45:40;6.35;;;4.00;;
21987;SDS011;11158;53.404;-1.510;2023-03-01T07:48:05;5.65;;;3.22;;
21987;SDS011;11158;53.404;-1.510;2023-03-01T07:50:31;6.78;;;3.85;;
21987;SDS011;11158;53.404;-1.510;2023-03-01T07:52:57;8.02;;;3.65;;
21987;SDS011;11158;53.404;-1.510;2023-03-01T07:55:22;8.63;;;3.92;;
21987;SDS011;11158;53.404;-1.510;2023-03-01T07:57:48;7.15;;;3.50;;
21987;SDS011;11158;53.404;-1.510;2023-03-01T08:00:13;6.50;;;3.35;;
21987;SDS011;11158;53.404;-1.510;2023-03-01T08:02:39;7.53;;;4.63;;
21987;SDS011;11158;53.404;-1.510;2023-03-01T08:05:07;12.80;;;7.88;;
21987;SDS011;11158;53.404;-1.510;2023-03-01T08:07:34;4.88;;;3.97;;
21987;SDS011;11158;53.404;-1.510;2023-03-01T08:10:00;9.95;;;7.28;;
21987;SDS011;11158;53.404;-1.510;2023-03-01T08:12:25;7.78;;;4.22;;
21987;SDS011;11158;53.404;-1.510;2023-03-01T08:14:53;6.95;;;4.25;;
21987;SDS011;11158;53.404;-1.510;2023-03-01T08:17:19;6.68;;;4.07;;
21987;SDS011;11158;53.404;-1.510;2023-03-01T08:19:47;10.23;;;4.82;;
21987;SDS011;11158;53.404;-1.510;2023-03-01T08:22:13;10.32;;;3.97;;
21987;SDS011;11158;53.404;-1.510;2023-03-01T08:24:39;6.07;;;2.75;;
21987;SDS011;11158;53.404;-1.510;2023-03-01T08:27:04;7.93;;;3.30;;
21987;SDS011;11158;53.404;-1.510;2023-03-01T08:29:31;9.15;;;3.63;;
21987;SDS011;11158;53.404;-1.510;2023-03-01T08:31:58;5.38;;;2.80;;
21987;SDS011;11158;53.404;-1.510;2023-03-01T08:34:25;6.07;;;2.65;;
21987;SDS011;11158;53.404;-1.510;2023-03-01T08:36:50;6.07;;;2.22;;
21987;SDS011;11158;53.404;-1.510;2023-03-01T08:39:17;5.95;;;2.10;;
21987;SDS011;11158;53.404;-1.510;2023-03-01T08:41:44;5.40;;;2.20;;
21987;SDS011;11158;53.404;-1.510;2023-03-01T08:44:11;3.78;;;1.70;;
21987;SDS011;11158;53.404;-1.510;2023-03-01T08:46:39;6.88;;;2.65;;
21987;SDS011;11158;53.404;-1.510;2023-03-01T08:49:16;4.65;;;2.42;;
21987;SDS011;11158;53.404;-1.510;2023-03-01T08:51:43;3.78;;;1.63;;
21987;SDS011;11158;53.404;-1.510;2023-03-01T08:54:10;6.47;;;2.45;;
21987;SDS011;11158;53.404;-1.510;2023-03-01T08:56:41;5.50;;;2.35;;
21987;SDS011;11158;53.404;-1.510;2023-03-01T08:59:07;6.45;;;2.15;;
21987;SDS011;11158;53.404;-1.510;2023-03-01T09:01:33;5.45;;;2.05;;
21987;SDS011;11158;53.404;-1.510;2023-03-01T09:03:59;4.25;;;2.10;;
21987;SDS011;11158;53.404;-1.510;2023-03-01T09:06:26;7.15;;;2.42;;
21987;SDS011;11158;53.404;-1.510;2023-03-01T09:08:52;3.38;;;1.70;;
21987;SDS011;11158;53.404;-1.510;2023-03-01T09:11:21;7.53;;;2.50;;
21987;SDS011;11158;53.404;-1.510;2023-03-01T09:13:47;6.63;;;1.92;;
21987;SDS011;11158;53.404;-1.510;2023-03-01T09:16:14;4.47;;;2.00;;
21987;SDS011;11158;53.404;-1.510;2023-03-01T09:18:42;6.55;;;2.28;;
21987;SDS011;11158;53.404;-1.510;2023-03-01T09:21:13;7.10;;;2.20;;
21987;SDS011;11158;53.404;-1.510;2023-03-01T09:23:43;6.15;;;2.08;;
21987;SDS011;11158;53.404;-1.510;2023-03-01T09:26:14;4.45;;;1.80;;
21987;SDS011;11158;53.404;-1.510;2023-03-01T09:28:47;6.40;;;2.10;;
21987;SDS011;11158;53.404;-1.510;2023-03-01T09:31:15;4.95;;;2.00;;
21987;SDS011;11158;53.404;-1.510;2023-03-01T09:33:42;6.68;;;2.13;;
21987;SDS011;11158;53.404;-1.510;2023-03-01T09:36:11;5.13;;;1.60;;
21987;SDS011;11158;53.404;-1.510;2023-03-01T09:38:38;5.43;;;1.75;;
21987;SDS011;11158;53.404;-1.510;2023-03-01T09:41:09;6.38;;;2.40;;
21987;SDS011;11158;53.404;-1.510;2023-03-01T09:46:44;3.63;;;2.60;;
21987;SDS011;11158;53.404;-1.510;2023-03-01T09:49:21;4.60;;;2.83;;
21987;SDS011;11158;53.404;-1.510;2023-03-01T09:52:33;6.20;;;2.85;;
21987;SDS011;11158;53.404;-1.510;2023-03-01T09:54:44;8.00;;;3.10;;
21987;SDS011;11158;53.404;-1.510;2023-03-01T10:09:05;5.95;;;2.45;;
21987;SDS011;11158;53.404;-1.510;2023-03-01T10:11:40;6.63;;;2.25;;
21987;SDS011;11158;53.404;-1.510;2023-03-01T10:14:24;4.72;;;1.90;;
21987;SDS011;11158;53.404;-1.510;2023-03-01T10:16:59;5.05;;;1.60;;
21987;SDS011;11158;53.404;-1.510;2023-03-01T10:19:45;5.63;;;1.65;;
21987;SDS011;11158;53.404;-1.510;2023-03-01T10:24:40;4.97;;;2.00;;
21987;SDS011;11158;53.404;-1.510;2023-03-01T10:27:53;4.75;;;1.77;;
21987;SDS011;11158;53.404;-1.510;2023-03-01T10:30:13;5.85;;;1.92;;
21987;SDS011;11158;53.404;-1.510;2023-03-01T10:32:45;5.60;;;1.58;;
21987;SDS011;11158;53.404;-1.510;2023-03-01T10:35:21;8.73;;;2.13;;
21987;SDS011;11158;53.404;-1.510;2023-03-01T10:38:05;4.18;;;1.83;;
21987;SDS011;11158;53.404;-1.510;2023-03-01T10:40:33;4.93;;;2.22;;
21987;SDS011;11158;53.404;-1.510;2023-03-01T10:43:02;3.58;;;1.70;;
21987;SDS011;11158;53.404;-1.510;2023-03-01T10:50:49;5.03;;;1.73;;
21987;SDS011;11158;53.404;-1.510;2023-03-01T10:53:21;3.80;;;1.40;;
21987;SDS011;11158;53.404;-1.510;2023-03-01T10:55:56;3.80;;;1.45;;
21987;SDS011;11158;53.404;-1.510;2023-03-01T11:01:39;4.88;;;1.60;;
21987;SDS011;11158;53.404;-1.510;2023-03-01T11:06:30;5.32;;;1.90;;
21987;SDS011;11158;53.404;-1.510;2023-03-01T11:08:56;5.55;;;2.20;;
21987;SDS011;11158;53.404;-1.510;2023-03-01T11:11:31;5.78;;;1.70;;
21987;SDS011;11158;53.404;-1.510;2023-03-01T11:17:05;4.13;;;1.45;;
21987;SDS011;11158;53.404;-1.510;2023-03-01T11:19:37;7.35;;;2.03;;
21987;SDS011;11158;53.404;-1.510;2023-03-01T11:22:13;3.05;;;1.40;;
21987;SDS011;11158;53.404;-1.510;2023-03-01T11:24:51;5.35;;;1.65;;
21987;SDS011;11158;53.404;-1.510;2023-03-01T11:27:21;4.78;;;1.58;;
21987;SDS011;11158;53.404;-1.510;2023-03-01T11:29:59;4.28;;;1.48;;
21987;SDS011;11158;53.404;-1.510;2023-03-01T11:32:39;2.63;;;1.20;;
21987;SDS011;11158;53.404;-1.510;2023-03-01T11:35:18;6.55;;;1.75;;
21987;SDS011;11158;53.404;-1.510;2023-03-01T11:38:12;7.43;;;1.85;;
21987;SDS011;11158;53.404;-1.510;2023-03-01T11:40:47;5.50;;;1.90;;
21987;SDS011;11158;53.404;-1.510;2023-03-01T11:56:57;9.25;;;2.05;;
21987;SDS011;11158;53.404;-1.510;2023-03-01T12:00:07;5.73;;;1.50;;
21987;SDS011;11158;53.404;-1.510;2023-03-01T12:12:57;7.28;;;1.52;;
21987;SDS011;11158;53.404;-1.510;2023-03-01T12:27:04;4.60;;;1.10;;
21987;SDS011;11158;53.404;-1.510;2023-03-01T12:51:49;4.43;;;1.67;;
21987;SDS011;11158;53.404;-1.510;2023-03-01T12:54:22;4.28;;;1.63;;
21987;SDS011;11158;53.404;-1.510;2023-03-01T12:56:53;3.25;;;1.50;;
21987;SDS011;11158;53.404;-1.510;2023-03-01T13:02:30;9.40;;;2.33;;
21987;SDS011;11158;53.404;-1.510;2023-03-01T13:05:19;5.70;;;2.05;;
21987;SDS011;11158;53.404;-1.510;2023-03-01T13:10:49;5.97;;;1.67;;
21987;SDS011;11158;53.404;-1.510;2023-03-01T13:13:22;6.68;;;2.13;;
21987;SDS011;11158;53.404;-1.510;2023-03-01T13:19:34;4.82;;;1.42;;
21987;SDS011;11158;53.404;-1.510;2023-03-01T13:22:01;5.45;;;1.48;;
21987;SDS011;11158;53.404;-1.510;2023-03-01T13:25:16;6.78;;;1.67;;
21987;SDS011;11158;53.404;-1.510;2023-03-01T13:27:44;5.28;;;1.80;;
21987;SDS011;11158;53.404;-1.510;2023-03-01T13:35:52;4.38;;;1.48;;
21987;SDS011;11158;53.404;-1.510;2023-03-01T13:41:03;4.30;;;1.42;;
21987;SDS011;11158;53.404;-1.510;2023-03-01T13:43:34;4.50;;;1.60;;
21987;SDS011;11158;53.404;-1.510;2023-03-01T13:46:38;4.82;;;1.38;;
21987;SDS011;11158;53.404;-1.510;2023-03-01T13:48:58;6.07;;;1.40;;
21987;SDS011;11158;53.404;-1.510;2023-03-01T13:51:25;4.50;;;1.10;;
21987;SDS011;11158;53.404;-1.510;2023-03-01T13:53:53;4.00;;;1.60;;
21987;SDS011;11158;53.404;-1.510;2023-03-01T13:56:24;3.42;;;1.38;;
21987;SDS011;11158;53.404;-1.510;2023-03-01T13:59:02;5.00;;;1.30;;
21987;SDS011;11158;53.404;-1.510;2023-03-01T14:01:32;2.65;;;1.33;;
21987;SDS011;11158;53.404;-1.510;2023-03-01T14:04:01;7.43;;;1.90;;
21987;SDS011;11158;53.404;-1.510;2023-03-01T14:06:31;6.28;;;1.30;;
21987;SDS011;11158;53.404;-1.510;2023-03-01T14:09:20;2.25;;;1.20;;
21987;SDS011;11158;53.404;-1.510;2023-03-01T14:11:57;5.75;;;1.20;;
21987;SDS011;11158;53.404;-1.510;2023-03-01T14:17:26;3.72;;;1.77;;
21987;SDS011;11158;53.404;-1.510;2023-03-01T14:20:11;5.60;;;1.52;;
21987;SDS011;11158;53.404;-1.510;2023-03-01T14:22:49;5.22;;;3.38;;
21987;SDS011;11158;53.404;-1.510;2023-03-01T14:25:20;3.83;;;1.40;;
21987;SDS011;11158;53.404;-1.510;2023-03-01T14:30:25;5.85;;;1.55;;
21987;SDS011;11158;53.404;-1.510;2023-03-01T14:33:01;4.07;;;1.23;;
21987;SDS011;11158;53.404;-1.510;2023-03-01T14:35:29;2.92;;;1.25;;
21987;SDS011;11158;53.404;-1.510;2023-03-01T14:37:57;6.32;;;1.30;;
21987;SDS011;11158;53.404;-1.510;2023-03-01T14:40:32;5.75;;;1.60;;
21987;SDS011;11158;53.404;-1.510;2023-03-01T14:43:01;6.72;;;1.40;;
21987;SDS011;11158;53.404;-1.510;2023-03-01T14:45:33;6.72;;;1.77;;
21987;SDS011;11158;53.404;-1.510;2023-03-01T14:47:59;8.13;;;2.35;;
21987;SDS011;11158;53.404;-1.510;2023-03-01T14:50:31;5.28;;;1.92;;
21987;SDS011;11158;53.404;-1.510;2023-03-01T14:52:58;4.13;;;1.40;;
21987;SDS011;11158;53.404;-1.510;2023-03-01T14:58:13;5.78;;;1.10;;
21987;SDS011;11158;53.404;-1.510;2023-03-01T15:00:48;4.15;;;1.45;;
21987;SDS011;11158;53.404;-1.510;2023-03-01T15:03:23;4.63;;;1.42;;
21987;SDS011;11158;53.404;-1.510;2023-03-01T15:05:49;5.05;;;1.77;;
21987;SDS011;11158;53.404;-1.510;2023-03-01T15:08:25;5.35;;;1.63;;
21987;SDS011;11158;53.404;-1.510;2023-03-01T15:11:05;4.75;;;1.48;;
21987;SDS011;11158;53.404;-1.510;2023-03-01T15:13:43;6.05;;;1.40;;
21987;SDS011;11158;53.404;-1.510;2023-03-01T15:18:55;3.58;;;1.40;;
21987;SDS011;11158;53.404;-1.510;2023-03-01T15:21:24;6.10;;;2.00;;
21987;SDS011;11158;53.404;-1.510;2023-03-01T15:23:56;6.05;;;2.30;;
21987;SDS011;11158;53.404;-1.510;2023-03-01T15:26:38;7.95;;;2.30;;
21987;SDS011;11158;53.404;-1.510;2023-03-01T15:29:10;5.15;;;2.60;;
21987;SDS011;11158;53.404;-1.510;2023-03-01T15:31:42;4.95;;;2.67;;
21987;SDS011;11158;53.404;-1.510;2023-03-01T15:34:10;4.97;;;2.03;;
21987;SDS011;11158;53.404;-1.510;2023-03-01T15:36:50;6.20;;;1.63;;
21987;SDS011;11158;53.404;-1.510;2023-03-01T15:39:43;4.60;;;1.73;;
21987;SDS011;11158;53.404;-1.510;2023-03-01T15:45:07;5.20;;;1.48;;
21987;SDS011;11158;53.404;-1.510;2023-03-01T15:47:54;6.18;;;1.55;;
21987;SDS011;11158;53.404;-1.510;2023-03-01T15:52:50;3.70;;;1.60;;
21987;SDS011;11158;53.404;-1.510;2023-03-01T15:57:46;3.33;;;1.40;;
21987;SDS011;11158;53.404;-1.510;2023-03-01T16:00:13;4.90;;;1.30;;
21987;SDS011;11158;53.404;-1.510;2023-03-01T16:02:40;4.32;;;1.10;;
21987;SDS011;11158;53.404;-1.510;2023-03-01T16:05:26;7.40;;;1.17;;
21987;SDS011;11158;53.404;-1.510;2023-03-01T16:07:57;3.13;;;1.27;;
21987;SDS011;11158;53.404;-1.510;2023-03-01T16:10:22;5.07;;;1.38;;
21987;SDS011;11158;53.404;-1.510;2023-03-01T16:12:52;3.33;;;1.10;;
21987;SDS011;11158;53.404;-1.510;2023-03-01T16:15:19;3.70;;;1.30;;
21987;SDS011;11158;53.404;-1.510;2023-03-01T16:17:47;4.95;;;1.40;;
21987;SDS011;11158;53.404;-1.510;2023-03-01T16:20:13;4.53;;;1.50;;
21987;SDS011;11158;53.404;-1.510;2023-03-01T16:22:42;2.78;;;1.13;;
21987;SDS011;11158;53.404;-1.510;2023-03-01T16:25:13;4.28;;;1.15;;
21987;SDS011;11158;53.404;-1.510;2023-03-01T16:27:43;4.45;;;1.40;;
21987;SDS011;11158;53.404;-1.510;2023-03-01T16:30:11;3.85;;;1.52;;
21987;SDS011;11158;53.404;-1.510;2023-03-01T16:32:38;3.45;;;1.25;;
21987;SDS011;11158;53.404;-1.510;2023-03-01T16:35:05;3.30;;;1.50;;
21987;SDS011;11158;53.404;-1.510;2023-03-01T16:37:32;4.97;;;1.27;;
21987;SDS011;11158;53.404;-1.510;2023-03-01T16:39:59;4.05;;;1.35;;
21987;SDS011;11158;53.404;-1.510;2023-03-01T16:42:24;3.55;;;1.52;;
21987;SDS011;11158;53.404;-1.510;2023-03-01T16:44:56;5.43;;;1.48;;
21987;SDS011;11158;53.404;-1.510;2023-03-01T16:47:22;3.63;;;1.30;;
21987;SDS011;11158;53.404;-1.510;2023-03-01T16:49:51;2.60;;;1.20;;
21987;SDS011;11158;53.404;-1.510;2023-03-01T16:52:17;3.65;;;1.60;;
21987;SDS011;11158;53.404;-1.510;2023-03-01T16:54:43;3.55;;;1.42;;
21987;SDS011;11158;53.404;-1.510;2023-03-01T16:57:09;5.97;;;1.63;;
21987;SDS011;11158;53.404;-1.510;2023-03-01T16:59:34;4.95;;;1.63;;
21987;SDS011;11158;53.404;-1.510;2023-03-01T17:02:00;6.00;;;2.00;;
21987;SDS011;11158;53.404;-1.510;2023-03-01T17:04:25;6.18;;;1.70;;
21987;SDS011;11158;53.404;-1.510;2023-03-01T17:06:51;7.93;;;1.95;;
21987;SDS011;11158;53.404;-1.510;2023-03-01T17:09:17;6.10;;;2.10;;
21987;SDS011;11158;53.404;-1.510;2023-03-01T17:11:42;4.40;;;1.90;;
21987;SDS011;11158;53.404;-1.510;2023-03-01T17:14:08;5.07;;;2.00;;